Time;durP1;ratioP1;P1;durP2;ratioP2;P2;SDS_P1;SDS_P2;PMS_P1;PMS_P2;Temp;Humidity;BMP_temperature;BMP_pressure;BME280_temperature;BME280_humidity;BME280_pressure;Samples;Min_cycle;Max_cycle;Signal;HPM_P1;HPM_P2
2023/07/29 00:01:51;;;;;;;1.60;1.50;;;;;;;;;;5000783;28;20042;-70
2023/07/29 00:04:16;;;;;;;4.03;1.83;;;;;;;;;;5001897;28;20046;-70
2023/07/29 00:06:42;;;;;;;2.08;1.90;;;;;;;;;;5001970;28;20049;-70
2023/07/29 00:09:07;;;;;;;2.10;1.70;;;;;;;;;;5000943;28;20049;-69
2023/07/29 00:11:33;;;;;;;2.28;1.60;;;;;;;;;;5000216;28;20952;-70
2023/07/29 00:14:02;;;;;;;2.17;1.50;;;;;;;;;;5000592;28;20045;-70
2023/07/29 00:16:27;;;;;;;4.57;2.38;;;;;;;;;;5009090;28;20149;-70
2023/07/29 00:18:53;;;;;;;2.40;1.90;;;;;;;;;;5001100;28;20049;-70
2023/07/29 00:21:18;;;;;;;2.10;1.88;;;;;;;;;;5000538;28;20133;-69
2023/07/29 00:23:45;;;;;;;2.75;2.03;;;;;;;;;;5001644;28;20044;-71
2023/07/29 00:26:10;;;;;;;4.32;2.40;;;;;;;;;;5001571;28;20058;-70
2023/07/29 00:28:36;;;;;;;3.15;2.10;;;;;;;;;;5002829;28;20128;-70
2023/07/29 00:31:02;;;;;;;5.95;2.30;;;;;;;;;;5005508;28;20049;-70
2023/07/29 00:33:27;;;;;;;2.38;2.15;;;;;;;;;;5002257;28;20988;-70
2023/07/29 00:35:53;;;;;;;3.13;2.40;;;;;;;;;;5001971;28;20044;-71
2023/07/29 00:38:18;;;;;;;2.50;2.08;;;;;;;;;;5008913;28;20041;-69
2023/07/29 00:40:44;;;;;;;2.70;2.10;;;;;;;;;;4999524;28;20680;-69
2023/07/29 00:43:09;;;;;;;2.63;2.40;;;;;;;;;;5002655;28;20056;-72
2023/07/29 00:45:35;;;;;;;2.95;2.05;;;;;;;;;;5002623;28;20768;-69
2023/07/29 00:48:02;;;;;;;2.55;2.35;;;;;;;;;;5003638;28;20128;-71
2023/07/29 00:50:30;;;;;;;4.15;2.47;;;;;;;;;;5001218;28;20060;-71
2023/07/29 00:52:56;;;;;;;3.60;2.30;;;;;;;;;;4999245;28;20458;-70
2023/07/29 00:55:23;;;;;;;2.55;2.17;;;;;;;;;;5000835;28;20041;-70
2023/07/29 00:57:51;;;;;;;2.90;1.95;;;;;;;;;;5000542;28;20127;-70
2023/07/29 01:00:17;;;;;;;2.53;2.15;;;;;;;;;;4999654;28;20057;-71
2023/07/29 01:02:43;;;;;;;1.92;1.83;;;;;;;;;;5000230;28;20046;-74
2023/07/29 01:05:11;;;;;;;2.60;2.10;;;;;;;;;;5001761;28;20376;-70
2023/07/29 01:07:48;;;;;;;2.20;1.92;;;;;;;;;;5005594;28;20467;-70
2023/07/29 01:10:24;;;;;;;6.03;2.25;;;;;;;;;;4999583;28;20049;-69
2023/07/29 01:12:49;;;;;;;3.97;2.30;;;;;;;;;;5000929;28;20042;-70
2023/07/29 01:15:33;;;;;;;3.90;2.03;;;;;;;;;;5003369;28;20056;-69
2023/07/29 01:18:09;;;;;;;2.90;2.13;;;;;;;;;;5020667;28;20069;-70
2023/07/29 01:20:39;;;;;;;2.50;2.00;;;;;;;;;;5018462;28;20049;-70
2023/07/29 01:23:05;;;;;;;2.22;2.03;;;;;;;;;;5002044;28;20126;-69
2023/07/29 01:25:30;;;;;;;4.80;1.70;;;;;;;;;;5009229;28;20076;-69
2023/07/29 01:27:57;;;;;;;3.42;1.92;;;;;;;;;;5006004;28;20164;-70
2023/07/29 01:30:28;;;;;;;2.00;1.90;;;;;;;;;;5000662;28;20050;-70
2023/07/29 01:33:07;;;;;;;2.10;1.90;;;;;;;;;;4999929;28;20119;-70
2023/07/29 01:35:37;;;;;;;3.72;1.95;;;;;;;;;;4999275;28;20046;-69
2023/07/29 01:38:12;;;;;;;4.53;1.83;;;;;;;;;;4999963;28;20049;-70
2023/07/29 01:40:37;;;;;;;2.17;1.80;;;;;;;;;;5012354;28;20053;-70
2023/07/29 01:43:03;;;;;;;2.35;1.77;;;;;;;;;;5005577;28;20053;-72
2023/07/29 01:45:31;;;;;;;3.40;2.25;;;;;;;;;;5000604;28;20046;-70
2023/07/29 01:47:57;;;;;;;2.70;2.20;;;;;;;;;;4998732;28;20049;-69
2023/07/29 01:50:22;;;;;;;2.20;1.83;;;;;;;;;;4998511;28;20064;-70
2023/07/29 01:52:48;;;;;;;2.17;1.90;;;;;;;;;;4999607;28;20085;-70
2023/07/29 01:55:13;;;;;;;2.42;2.22;;;;;;;;;;4997889;28;20137;-70
2023/07/29 01:57:40;;;;;;;3.83;1.85;;;;;;;;;;4983518;28;20049;-69
2023/07/29 02:00:06;;;;;;;2.53;2.10;;;;;;;;;;4998677;28;20414;-69
2023/07/29 02:02:39;;;;;;;3.88;2.25;;;;;;;;;;5006604;28;20080;-70
2023/07/29 02:05:05;;;;;;;2.55;2.10;;;;;;;;;;5005572;28;20092;-69
2023/07/29 02:07:30;;;;;;;1.95;1.75;;;;;;;;;;4999706;28;20435;-71
2023/07/29 02:09:56;;;;;;;2.35;2.05;;;;;;;;;;5002643;28;20041;-69
2023/07/29 02:12:21;;;;;;;2.83;1.83;;;;;;;;;;5002573;28;20057;-70
2023/07/29 02:14:47;;;;;;;2.25;2.05;;;;;;;;;;5005194;28;20053;-70
2023/07/29 02:17:12;;;;;;;2.00;1.77;;;;;;;;;;5004271;28;20050;-69
2023/07/29 02:19:37;;;;;;;4.85;2.20;;;;;;;;;;5003914;28;20046;-69
2023/07/29 02:22:03;;;;;;;3.42;1.90;;;;;;;;;;5002374;28;20081;-69
2023/07/29 02:24:29;;;;;;;2.10;1.90;;;;;;;;;;5001932;28;20061;-71
2023/07/29 02:26:54;;;;;;;4.30;1.95;;;;;;;;;;5001654;28;20041;-69
2023/07/29 02:29:21;;;;;;;3.42;2.10;;;;;;;;;;5001641;28;20045;-69
2023/07/29 02:31:47;;;;;;;2.50;2.00;;;;;;;;;;5002142;28;20948;-71
2023/07/29 02:34:13;;;;;;;2.63;2.25;;;;;;;;;;5001538;28;20092;-69
2023/07/29 02:36:38;;;;;;;2.30;2.10;;;;;;;;;;5002255;28;20042;-69
2023/07/29 02:39:04;;;;;;;3.00;2.40;;;;;;;;;;5000048;28;20045;-69
2023/07/29 02:41:30;;;;;;;2.35;2.13;;;;;;;;;;5017842;28;20377;-69
2023/07/29 02:43:56;;;;;;;5.45;3.15;;;;;;;;;;5001853;28;20049;-69
2023/07/29 02:46:21;;;;;;;3.20;2.58;;;;;;;;;;5009680;28;20069;-70
2023/07/29 02:48:47;;;;;;;3.22;2.40;;;;;;;;;;5013199;28;20066;-69
2023/07/29 02:51:12;;;;;;;2.90;2.70;;;;;;;;;;5017604;28;20555;-70
2023/07/29 02:53:38;;;;;;;4.18;2.40;;;;;;;;;;4993643;28;20052;-69
2023/07/29 02:56:04;;;;;;;2.63;2.25;;;;;;;;;;5003658;28;20045;-69
2023/07/29 02:58:29;;;;;;;2.33;2.08;;;;;;;;;;5001622;28;20056;-70
2023/07/29 03:01:05;;;;;;;4.45;2.17;;;;;;;;;;5001646;28;20046;-70
2023/07/29 03:03:31;;;;;;;3.13;2.20;;;;;;;;;;5002944;28;20037;-71
2023/07/29 03:06:02;;;;;;;4.78;2.60;;;;;;;;;;5001693;28;20575;-72
2023/07/29 03:08:28;;;;;;;5.00;2.63;;;;;;;;;;5001514;28;20530;-69
2023/07/29 03:10:54;;;;;;;2.53;2.22;;;;;;;;;;5002399;28;20730;-69
2023/07/29 03:13:20;;;;;;;2.75;2.20;;;;;;;;;;5004220;28;20132;-69
2023/07/29 03:15:45;;;;;;;3.47;2.15;;;;;;;;;;5003563;28;20034;-69
2023/07/29 03:18:11;;;;;;;2.60;2.38;;;;;;;;;;5006812;28;20376;-71
2023/07/29 03:20:37;;;;;;;3.13;2.40;;;;;;;;;;5002848;28;20072;-71
2023/07/29 03:23:02;;;;;;;2.80;2.40;;;;;;;;;;5000831;28;20057;-70
2023/07/29 03:25:28;;;;;;;2.35;2.15;;;;;;;;;;5000636;28;20046;-70
2023/07/29 03:27:54;;;;;;;6.05;2.45;;;;;;;;;;5006312;28;20137;-70
2023/07/29 03:30:21;;;;;;;3.42;2.60;;;;;;;;;;5006768;28;20439;-71
2023/07/29 03:32:47;;;;;;;2.72;2.17;;;;;;;;;;5002789;28;20037;-70
2023/07/29 03:35:13;;;;;;;6.32;2.55;;;;;;;;;;5009668;28;20116;-70
2023/07/29 03:37:39;;;;;;;3.25;2.33;;;;;;;;;;5007620;28;20423;-70
2023/07/29 03:40:07;;;;;;;3.03;2.60;;;;;;;;;;5004091;28;20149;-69
2023/07/29 03:42:33;;;;;;;6.38;2.47;;;;;;;;;;5000629;28;20049;-69
2023/07/29 03:44:58;;;;;;;3.17;2.65;;;;;;;;;;5016055;28;20037;-69
2023/07/29 03:47:24;;;;;;;3.30;2.67;;;;;;;;;;5005867;28;20107;-69
2023/07/29 03:49:51;;;;;;;2.90;2.53;;;;;;;;;;5000460;28;20033;-70
2023/07/29 03:52:20;;;;;;;6.28;2.78;;;;;;;;;;5006451;28;20737;-69
2023/07/29 03:54:45;;;;;;;3.35;2.70;;;;;;;;;;5000249;28;20046;-70
2023/07/29 03:57:11;;;;;;;2.58;2.38;;;;;;;;;;5001416;28;20399;-70
2023/07/29 03:59:36;;;;;;;7.45;3.05;;;;;;;;;;5006380;28;20045;-70
2023/07/29 04:02:01;;;;;;;4.38;3.53;;;;;;;;;;5000074;28;20045;-70
2023/07/29 04:04:27;;;;;;;3.80;2.97;;;;;;;;;;5005812;28;20061;-69
2023/07/29 04:06:52;;;;;;;5.85;2.70;;;;;;;;;;5003974;28;20048;-70
2023/07/29 04:09:18;;;;;;;4.85;2.58;;;;;;;;;;5001858;28;20077;-69
2023/07/29 04:11:44;;;;;;;5.78;2.80;;;;;;;;;;5000474;28;20046;-68
2023/07/29 04:14:09;;;;;;;6.60;2.90;;;;;;;;;;5000934;28;20100;-69
2023/07/29 04:16:34;;;;;;;3.17;2.70;;;;;;;;;;5000051;28;20057;-70
2023/07/29 04:19:00;;;;;;;3.88;2.70;;;;;;;;;;5001177;28;20193;-68
2023/07/29 04:21:26;;;;;;;3.08;2.60;;;;;;;;;;5001175;28;20046;-69
2023/07/29 04:23:51;;;;;;;4.65;2.47;;;;;;;;;;5001986;28;20053;-70
2023/07/29 04:26:16;;;;;;;3.45;2.70;;;;;;;;;;5000414;28;20042;-68
2023/07/29 04:28:42;;;;;;;3.10;2.65;;;;;;;;;;5007096;28;20065;-69
2023/07/29 04:31:08;;;;;;;5.10;2.60;;;;;;;;;;5003237;28;20053;-69
2023/07/29 04:33:33;;;;;;;3.22;2.83;;;;;;;;;;5002198;28;20050;-70
2023/07/29 04:35:59;;;;;;;4.55;2.38;;;;;;;;;;5000304;28;20038;-69
2023/07/29 04:38:30;;;;;;;3.13;2.50;;;;;;;;;;5001504;28;20598;-69
2023/07/29 04:40:55;;;;;;;3.37;2.60;;;;;;;;;;5003969;28;20116;-71
2023/07/29 04:43:21;;;;;;;3.00;2.55;;;;;;;;;;5000089;28;20273;-68
2023/07/29 04:45:46;;;;;;;3.50;2.50;;;;;;;;;;5001572;28;20068;-69
2023/07/29 04:48:11;;;;;;;3.30;2.85;;;;;;;;;;4999421;28;20522;-71
2023/07/29 04:50:37;;;;;;;4.68;2.42;;;;;;;;;;5000431;28;20132;-68
2023/07/29 04:53:02;;;;;;;2.90;2.17;;;;;;;;;;4999762;28;20133;-70
2023/07/29 04:55:28;;;;;;;2.05;1.85;;;;;;;;;;4999976;28;20091;-71
2023/07/29 04:57:53;;;;;;;4.82;1.98;;;;;;;;;;5002982;28;20052;-69
2023/07/29 05:00:19;;;;;;;5.35;2.00;;;;;;;;;;5002454;28;20119;-70
2023/07/29 05:02:45;;;;;;;1.98;1.88;;;;;;;;;;5000120;28;20045;-70
2023/07/29 05:05:10;;;;;;;2.65;2.05;;;;;;;;;;5001404;28;20065;-70
2023/07/29 05:07:36;;;;;;;3.22;1.85;;;;;;;;;;5004256;28;20064;-69
2023/07/29 05:10:01;;;;;;;1.98;1.75;;;;;;;;;;5000436;28;20152;-69
2023/07/29 05:12:29;;;;;;;2.05;1.70;;;;;;;;;;5009600;28;20537;-71
2023/07/29 05:14:54;;;;;;;2.67;1.48;;;;;;;;;;4999183;28;20124;-69
2023/07/29 05:17:20;;;;;;;4.80;1.40;;;;;;;;;;4999741;28;21144;-69
2023/07/29 05:19:45;;;;;;;1.92;1.60;;;;;;;;;;4999290;28;20473;-70
2023/07/29 05:22:11;;;;;;;5.32;1.70;;;;;;;;;;5004378;28;20518;-69
2023/07/29 05:24:36;;;;;;;5.90;1.50;;;;;;;;;;5000646;28;20123;-71
2023/07/29 05:27:02;;;;;;;4.07;1.63;;;;;;;;;;4998849;28;20038;-70
2023/07/29 05:29:27;;;;;;;2.25;1.65;;;;;;;;;;4999105;28;20050;-69
2023/07/29 05:31:53;;;;;;;2.10;1.23;;;;;;;;;;5000653;28;20049;-70
2023/07/29 05:34:18;;;;;;;1.77;1.67;;;;;;;;;;4999338;28;20046;-70
2023/07/29 05:36:44;;;;;;;2.30;1.90;;;;;;;;;;5003857;28;20034;-72
2023/07/29 05:39:12;;;;;;;2.20;1.90;;;;;;;;;;5026049;28;20063;-70
2023/07/29 05:41:37;;;;;;;1.65;1.40;;;;;;;;;;5025436;28;20187;-70
2023/07/29 05:44:03;;;;;;;2.53;1.60;;;;;;;;;;5004707;28;20133;-71
2023/07/29 05:46:28;;;;;;;1.92;1.52;;;;;;;;;;5007469;28;20814;-70
2023/07/29 05:48:54;;;;;;;6.07;1.70;;;;;;;;;;5026372;28;20103;-71
2023/07/29 05:51:20;;;;;;;2.38;1.73;;;;;;;;;;5011835;28;20502;-70
2023/07/29 05:53:45;;;;;;;2.08;1.70;;;;;;;;;;5011102;28;20440;-70
2023/07/29 05:56:11;;;;;;;1.90;1.40;;;;;;;;;;5010239;28;20034;-71
2023/07/29 05:58:36;;;;;;;4.03;1.77;;;;;;;;;;5007155;28;20049;-70
2023/07/29 06:01:02;;;;;;;1.95;1.50;;;;;;;;;;5002735;28;20056;-70
2023/07/29 06:03:28;;;;;;;2.78;1.83;;;;;;;;;;5004113;28;20060;-70
2023/07/29 06:05:54;;;;;;;1.65;1.45;;;;;;;;;;5007135;28;20045;-70
2023/07/29 06:08:19;;;;;;;2.10;1.70;;;;;;;;;;5009306;28;20041;-71
2023/07/29 06:10:45;;;;;;;3.25;1.20;;;;;;;;;;5009620;28;20114;-70
2023/07/29 06:13:10;;;;;;;2.40;1.60;;;;;;;;;;4983001;28;20050;-69
2023/07/29 06:15:36;;;;;;;1.50;1.40;;;;;;;;;;4999010;28;20046;-69
2023/07/29 06:18:01;;;;;;;1.60;1.50;;;;;;;;;;5003104;28;20068;-70
2023/07/29 06:20:27;;;;;;;1.90;1.50;;;;;;;;;;4999220;28;20115;-70
2023/07/29 06:22:52;;;;;;;1.85;1.40;;;;;;;;;;5000077;28;20124;-69
2023/07/29 06:25:18;;;;;;;9.90;1.52;;;;;;;;;;5000506;28;20049;-70
2023/07/29 06:27:43;;;;;;;3.05;1.70;;;;;;;;;;5010545;28;20076;-70
2023/07/29 06:30:09;;;;;;;3.35;1.63;;;;;;;;;;5014663;28;20049;-70
2023/07/29 06:32:34;;;;;;;2.83;1.85;;;;;;;;;;5010274;28;20049;-70
2023/07/29 06:35:00;;;;;;;1.60;1.38;;;;;;;;;;5007000;28;20049;-71
2023/07/29 06:37:25;;;;;;;2.88;1.77;;;;;;;;;;5000772;28;20072;-70
2023/07/29 06:39:51;;;;;;;1.98;1.60;;;;;;;;;;4998757;28;20104;-70
2023/07/29 06:42:16;;;;;;;5.82;2.10;;;;;;;;;;5006088;28;20051;-71
2023/07/29 06:44:42;;;;;;;7.75;1.90;;;;;;;;;;5003724;28;20045;-71
2023/07/29 06:47:07;;;;;;;14.95;2.20;;;;;;;;;;5004753;28;20053;-69
2023/07/29 06:49:32;;;;;;;3.00;2.15;;;;;;;;;;5001352;28;20050;-70
2023/07/29 06:51:58;;;;;;;5.93;2.20;;;;;;;;;;5006728;28;20133;-71
2023/07/29 06:54:25;;;;;;;5.50;2.10;;;;;;;;;;4999346;28;20149;-71
2023/07/29 06:56:51;;;;;;;5.00;2.08;;;;;;;;;;5000241;28;20087;-71
2023/07/29 06:59:16;;;;;;;2.30;2.10;;;;;;;;;;5001241;28;20347;-71
2023/07/29 07:01:41;;;;;;;3.13;1.92;;;;;;;;;;5004886;28;20052;-71
2023/07/29 07:04:07;;;;;;;2.28;1.90;;;;;;;;;;5001490;28;20525;-71
2023/07/29 07:06:32;;;;;;;2.50;1.73;;;;;;;;;;5005815;28;20045;-71
2023/07/29 07:08:58;;;;;;;2.03;1.42;;;;;;;;;;5008668;28;20054;-71
2023/07/29 07:11:23;;;;;;;1.80;1.70;;;;;;;;;;5006662;28;20084;-71
2023/07/29 07:13:48;;;;;;;2.22;2.03;;;;;;;;;;5010912;28;20056;-72
2023/07/29 07:16:14;;;;;;;2.33;1.77;;;;;;;;;;5000947;28;20120;-70
2023/07/29 07:18:39;;;;;;;2.58;1.88;;;;;;;;;;5001959;28;20046;-71
2023/07/29 07:21:05;;;;;;;5.72;1.80;;;;;;;;;;5003173;28;20371;-70
2023/07/29 07:23:30;;;;;;;3.22;1.48;;;;;;;;;;5001959;28;20228;-70
2023/07/29 07:25:56;;;;;;;3.53;1.88;;;;;;;;;;5006258;28;20046;-70
2023/07/29 07:28:21;;;;;;;7.25;2.15;;;;;;;;;;5001479;28;20042;-70
2023/07/29 07:30:46;;;;;;;2.03;1.70;;;;;;;;;;5000198;28;20119;-72
2023/07/29 07:33:12;;;;;;;2.42;1.92;;;;;;;;;;5001278;28;20046;-72
2023/07/29 07:35:37;;;;;;;1.70;1.60;;;;;;;;;;5005652;28;20495;-71
2023/07/29 07:38:03;;;;;;;3.70;1.70;;;;;;;;;;5005727;28;20103;-71
2023/07/29 07:40:31;;;;;;;2.70;1.63;;;;;;;;;;5010982;28;20108;-71
2023/07/29 07:42:56;;;;;;;1.70;1.60;;;;;;;;;;5008591;28;20038;-71
2023/07/29 07:45:22;;;;;;;2.33;1.77;;;;;;;;;;5009789;28;20278;-71
2023/07/29 07:47:47;;;;;;;2.42;1.80;;;;;;;;;;5002502;28;20087;-71
2023/07/29 07:50:14;;;;;;;2.10;1.60;;;;;;;;;;5000736;28;20100;-71
2023/07/29 07:52:39;;;;;;;2.58;1.80;;;;;;;;;;5000907;28;20041;-71
2023/07/29 07:55:05;;;;;;;1.80;1.60;;;;;;;;;;4996311;28;20050;-71
2023/07/29 07:57:31;;;;;;;1.60;1.40;;;;;;;;;;4999511;28;20057;-71
2023/07/29 07:59:56;;;;;;;1.98;1.50;;;;;;;;;;5001530;28;20041;-72
2023/07/29 08:02:22;;;;;;;2.17;1.60;;;;;;;;;;4999771;28;20083;-71
2023/07/29 08:04:48;;;;;;;1.70;1.60;;;;;;;;;;5004850;28;20067;-72
2023/07/29 08:07:14;;;;;;;1.48;1.38;;;;;;;;;;5000023;28;20507;-71
2023/07/29 08:09:39;;;;;;;2.30;1.75;;;;;;;;;;4996760;28;20046;-71
2023/07/29 08:12:05;;;;;;;1.42;1.33;;;;;;;;;;4999456;28;20076;-71
2023/07/29 08:14:30;;;;;;;1.48;1.38;;;;;;;;;;5002937;28;20045;-71
2023/07/29 08:16:56;;;;;;;2.78;1.80;;;;;;;;;;4998745;28;20601;-70
2023/07/29 08:19:21;;;;;;;1.63;1.50;;;;;;;;;;4999314;28;20056;-72
2023/07/29 08:21:46;;;;;;;1.90;1.50;;;;;;;;;;5000620;28;20555;-71
2023/07/29 08:24:12;;;;;;;2.28;1.90;;;;;;;;;;5002807;28;20140;-71
2023/07/29 08:26:37;;;;;;;1.67;1.52;;;;;;;;;;5005627;28;20132;-71
2023/07/29 08:29:03;;;;;;;1.70;1.60;;;;;;;;;;5002421;28;20065;-71
2023/07/29 08:31:28;;;;;;;1.80;1.67;;;;;;;;;;5002133;28;20108;-72
2023/07/29 08:33:54;;;;;;;3.33;2.00;;;;;;;;;;5006320;28;20194;-72
2023/07/29 08:36:19;;;;;;;2.17;1.50;;;;;;;;;;5005845;28;20042;-71
2023/07/29 08:38:45;;;;;;;1.85;1.70;;;;;;;;;;5011588;28;20399;-72
2023/07/29 08:41:29;;;;;;;2.53;1.70;;;;;;;;;;5019305;28;20459;-72
2023/07/29 08:44:26;;;;;;;2.03;1.60;;;;;;;;;;5002962;28;20077;-72
2023/07/29 08:46:53;;;;;;;1.83;1.73;;;;;;;;;;5002276;28;20175;-72
2023/07/29 08:49:19;;;;;;;3.20;2.33;;;;;;;;;;5002910;28;20053;-72
2023/07/29 08:51:48;;;;;;;2.20;1.88;;;;;;;;;;5017876;28;20463;-72
2023/07/29 08:54:14;;;;;;;3.50;1.70;;;;;;;;;;5001577;28;20756;-72
2023/07/29 08:56:44;;;;;;;1.88;1.70;;;;;;;;;;5003898;28;20041;-72
2023/07/29 08:59:10;;;;;;;1.77;1.45;;;;;;;;;;5001870;28;20041;-72
2023/07/29 09:01:41;;;;;;;5.72;1.50;;;;;;;;;;5009647;28;20042;-72
2023/07/29 09:04:06;;;;;;;2.25;1.73;;;;;;;;;;5007746;28;20139;-72
2023/07/29 09:06:32;;;;;;;1.70;1.40;;;;;;;;;;5004106;28;20136;-72
2023/07/29 09:08:59;;;;;;;3.80;1.70;;;;;;;;;;5006786;28;20054;-72
2023/07/29 09:11:25;;;;;;;1.73;1.63;;;;;;;;;;5004369;28;20586;-72
2023/07/29 09:13:51;;;;;;;2.08;1.60;;;;;;;;;;5009809;28;20523;-72
2023/07/29 09:16:16;;;;;;;5.60;1.90;;;;;;;;;;5005217;28;20065;-72
2023/07/29 09:18:42;;;;;;;2.30;2.10;;;;;;;;;;5009933;28;20050;-72
2023/07/29 09:21:08;;;;;;;4.60;1.60;;;;;;;;;;5012043;28;20083;-72
2023/07/29 09:23:44;;;;;;;1.75;1.65;;;;;;;;;;5004694;28;20066;-70
2023/07/29 09:26:10;;;;;;;2.28;1.73;;;;;;;;;;5003334;28;20050;-71
2023/07/29 09:28:37;;;;;;;1.83;1.63;;;;;;;;;;4999908;28;20054;-70
2023/07/29 09:31:03;;;;;;;1.98;1.52;;;;;;;;;;4999257;28;20169;-71
2023/07/29 09:33:31;;;;;;;1.95;1.75;;;;;;;;;;5000245;28;20069;-71
2023/07/29 09:35:57;;;;;;;1.83;1.65;;;;;;;;;;5008000;28;20539;-70
2023/07/29 09:38:28;;;;;;;2.60;1.60;;;;;;;;;;5006004;28;20128;-70
2023/07/29 09:40:55;;;;;;;1.58;1.48;;;;;;;;;;5006510;28;20129;-70
2023/07/29 09:43:25;;;;;;;1.60;1.50;;;;;;;;;;5008043;28;20133;-70
2023/07/29 09:45:51;;;;;;;1.83;1.35;;;;;;;;;;5011117;28;20088;-70
2023/07/29 09:48:22;;;;;;;4.10;1.52;;;;;;;;;;5008941;28;20050;-70
2023/07/29 09:50:48;;;;;;;1.50;1.40;;;;;;;;;;5009511;28;20552;-71
2023/07/29 09:53:14;;;;;;;1.80;1.70;;;;;;;;;;4990621;28;20045;-71
2023/07/29 09:55:46;;;;;;;1.80;1.50;;;;;;;;;;5006850;28;20132;-71
2023/07/29 09:58:11;;;;;;;2.00;1.65;;;;;;;;;;5000220;28;20053;-71
2023/07/29 10:00:38;;;;;;;2.53;1.50;;;;;;;;;;5000673;28;20060;-70
2023/07/29 10:03:04;;;;;;;1.98;1.60;;;;;;;;;;5006866;28;20041;-71
2023/07/29 10:05:30;;;;;;;2.22;1.60;;;;;;;;;;5004994;28;20118;-72
2023/07/29 10:07:56;;;;;;;1.80;1.50;;;;;;;;;;5008149;28;20042;-72
2023/07/29 10:10:22;;;;;;;1.85;1.63;;;;;;;;;;4999097;28;20080;-72
2023/07/29 10:12:47;;;;;;;1.95;1.75;;;;;;;;;;5008322;28;20119;-75
2023/07/29 10:15:14;;;;;;;1.90;1.70;;;;;;;;;;5022994;28;20099;-72
2023/07/29 10:17:40;;;;;;;2.47;1.85;;;;;;;;;;5004027;28;20049;-73
2023/07/29 10:20:07;;;;;;;2.00;1.70;;;;;;;;;;5021442;28;20512;-72
2023/07/29 10:22:35;;;;;;;2.58;1.50;;;;;;;;;;5007509;28;20084;-73
2023/07/29 10:25:07;;;;;;;11.27;1.70;;;;;;;;;;5002819;28;20406;-72
2023/07/29 10:27:42;;;;;;;2.10;1.60;;;;;;;;;;5005048;28;20132;-72
2023/07/29 10:30:09;;;;;;;2.50;1.80;;;;;;;;;;5003323;28;20054;-71
2023/07/29 10:32:36;;;;;;;3.08;1.75;;;;;;;;;;5003592;28;20069;-74
2023/07/29 10:35:01;;;;;;;1.80;1.70;;;;;;;;;;5002906;28;20045;-71
2023/07/29 10:37:27;;;;;;;2.75;1.88;;;;;;;;;;5003932;28;20084;-72
2023/07/29 10:39:54;;;;;;;3.55;1.98;;;;;;;;;;5004097;28;20415;-73
2023/07/29 10:42:20;;;;;;;2.05;1.70;;;;;;;;;;5004253;28;20408;-72
2023/07/29 10:44:46;;;;;;;3.03;2.08;;;;;;;;;;5009888;28;20580;-73
2023/07/29 10:47:18;;;;;;;2.00;1.80;;;;;;;;;;5011341;28;20057;-73
2023/07/29 10:49:45;;;;;;;2.45;1.50;;;;;;;;;;5009705;28;20046;-73
2023/07/29 10:52:18;;;;;;;1.90;1.80;;;;;;;;;;5022036;28;20120;-72
2023/07/29 10:54:48;;;;;;;1.80;1.70;;;;;;;;;;5011783;28;20053;-69
2023/07/29 10:57:15;;;;;;;1.63;1.50;;;;;;;;;;5005134;28;20100;-70
2023/07/29 10:59:41;;;;;;;2.20;1.60;;;;;;;;;;5007164;28;20112;-72
2023/07/29 11:02:18;;;;;;;2.35;1.38;;;;;;;;;;5012413;28;20041;-74
2023/07/29 11:04:51;;;;;;;3.75;1.58;;;;;;;;;;5016453;28;20048;-72
2023/07/29 11:07:17;;;;;;;1.60;1.50;;;;;;;;;;5023876;28;20093;-74
2023/07/29 11:09:49;;;;;;;4.47;1.50;;;;;;;;;;5029641;28;20083;-73
2023/07/29 11:12:40;;;;;;;1.40;1.30;;;;;;;;;;5020663;28;20045;-73
2023/07/29 11:15:14;;;;;;;1.23;1.13;;;;;;;;;;5005199;28;20116;-71
2023/07/29 11:17:56;;;;;;;2.85;1.60;;;;;;;;;;5004285;28;20042;-73
2023/07/29 11:20:32;;;;;;;1.85;1.70;;;;;;;;;;5016358;28;20104;-72
2023/07/29 11:23:00;;;;;;;2.47;1.67;;;;;;;;;;5002502;28;20491;-73
2023/07/29 11:25:26;;;;;;;1.58;1.48;;;;;;;;;;5007288;28;20060;-73
2023/07/29 11:27:53;;;;;;;1.77;1.65;;;;;;;;;;5003729;28;20046;-73
2023/07/29 11:30:19;;;;;;;4.80;1.75;;;;;;;;;;5001953;28;20053;-70
2023/07/29 11:32:46;;;;;;;2.42;1.88;;;;;;;;;;5002517;28;20057;-70
2023/07/29 11:35:14;;;;;;;5.15;1.55;;;;;;;;;;5009167;28;20108;-72
2023/07/29 11:37:42;;;;;;;1.88;1.77;;;;;;;;;;5001585;28;20130;-71
2023/07/29 11:40:11;;;;;;;1.95;1.70;;;;;;;;;;5002494;28;20115;-73
2023/07/29 11:42:37;;;;;;;1.92;1.83;;;;;;;;;;5002189;28;20046;-72
2023/07/29 11:45:05;;;;;;;2.78;1.70;;;;;;;;;;5008080;28;20045;-72
2023/07/29 11:47:31;;;;;;;3.88;1.77;;;;;;;;;;5002329;28;20620;-73
2023/07/29 11:50:00;;;;;;;1.90;1.75;;;;;;;;;;5001160;28;20669;-73
2023/07/29 11:52:26;;;;;;;2.17;1.90;;;;;;;;;;5007721;28;20037;-72
2023/07/29 11:54:53;;;;;;;1.70;1.60;;;;;;;;;;5001873;28;20060;-73
2023/07/29 11:57:19;;;;;;;1.45;1.30;;;;;;;;;;5010500;28;20041;-73
2023/07/29 11:59:46;;;;;;;4.63;1.52;;;;;;;;;;4992699;28;20052;-75
2023/07/29 12:02:14;;;;;;;1.40;1.30;;;;;;;;;;5001855;28;20132;-74
2023/07/29 12:04:41;;;;;;;1.58;1.35;;;;;;;;;;5001773;28;20481;-73
2023/07/29 12:07:07;;;;;;;1.10;1.00;;;;;;;;;;5000664;28;20495;-72
2023/07/29 12:09:39;;;;;;;2.10;1.10;;;;;;;;;;5000920;28;20144;-71
2023/07/29 12:12:05;;;;;;;2.00;1.15;;;;;;;;;;5000474;28;20498;-72
2023/07/29 12:14:31;;;;;;;1.02;0.93;;;;;;;;;;5002543;28;20049;-71
2023/07/29 12:17:00;;;;;;;2.53;1.20;;;;;;;;;;5002094;28;20103;-70
2023/07/29 12:19:32;;;;;;;1.35;1.20;;;;;;;;;;4999893;28;20546;-71
2023/07/29 12:21:57;;;;;;;1.42;1.33;;;;;;;;;;5009986;28;20041;-72
2023/07/29 12:24:22;;;;;;;1.33;1.23;;;;;;;;;;5001520;28;20073;-69
2023/07/29 12:26:48;;;;;;;1.30;1.20;;;;;;;;;;4997389;28;20084;-72
2023/07/29 12:29:19;;;;;;;1.00;1.00;;;;;;;;;;4999324;28;20123;-69
2023/07/29 12:31:45;;;;;;;;;;;;;;;;;;5005193;28;20056;-70
2023/07/29 12:34:18;;;;;;;2.28;1.25;;;;;;;;;;5001215;28;19921;-72
2023/07/29 12:36:48;;;;;;;0.90;0.90;;;;;;;;;;5000570;28;20046;-69
2023/07/29 12:39:43;;;;;;;1.30;1.20;;;;;;;;;;4999907;28;20046;-70
2023/07/29 12:42:09;;;;;;;1.92;1.20;;;;;;;;;;5001546;28;20052;-71
2023/07/29 12:44:36;;;;;;;1.40;1.30;;;;;;;;;;5003938;28;20041;-72
2023/07/29 12:47:02;;;;;;;2.17;1.30;;;;;;;;;;4996870;28;21105;-72
2023/07/29 12:49:29;;;;;;;2.25;1.35;;;;;;;;;;4997556;28;20046;-72
2023/07/29 12:51:56;;;;;;;1.20;1.15;;;;;;;;;;5004773;28;20041;-71
2023/07/29 12:54:21;;;;;;;1.95;1.45;;;;;;;;;;5008163;28;20147;-72
2023/07/29 12:56:46;;;;;;;1.52;1.30;;;;;;;;;;5007097;28;20061;-76
2023/07/29 12:59:12;;;;;;;1.23;1.10;;;;;;;;;;5003622;28;20393;-70
2023/07/29 13:01:37;;;;;;;2.60;1.35;;;;;;;;;;5012082;28;20140;-72
2023/07/29 13:04:03;;;;;;;1.35;1.25;;;;;;;;;;5006185;28;20384;-73
2023/07/29 13:06:28;;;;;;;1.40;1.30;;;;;;;;;;5003616;28;20061;-70
2023/07/29 13:08:54;;;;;;;2.75;1.50;;;;;;;;;;5006042;28;20049;-71
2023/07/29 13:11:19;;;;;;;1.60;1.50;;;;;;;;;;5001991;28;20503;-72
2023/07/29 13:13:45;;;;;;;3.00;1.45;;;;;;;;;;5001084;28;20163;-70
2023/07/29 13:16:11;;;;;;;1.77;1.50;;;;;;;;;;5008861;28;20049;-71
2023/07/29 13:18:36;;;;;;;1.77;1.52;;;;;;;;;;5004339;28;20453;-69
2023/07/29 13:21:02;;;;;;;1.88;1.63;;;;;;;;;;4999485;28;20042;-73
2023/07/29 13:23:29;;;;;;;3.05;1.52;;;;;;;;;;5002590;28;20049;-72
2023/07/29 13:25:55;;;;;;;1.35;1.25;;;;;;;;;;5003685;28;20100;-73
2023/07/29 13:28:21;;;;;;;4.78;1.38;;;;;;;;;;5010093;28;20050;-71
2023/07/29 13:30:46;;;;;;;3.13;1.55;;;;;;;;;;5001994;28;20115;-70
2023/07/29 13:33:11;;;;;;;1.15;1.05;;;;;;;;;;5004268;28;20160;-70
2023/07/29 13:35:37;;;;;;;1.65;1.40;;;;;;;;;;5010272;28;20123;-72
2023/07/29 13:38:02;;;;;;;1.75;1.52;;;;;;;;;;5004706;28;20046;-72
2023/07/29 13:40:28;;;;;;;2.85;1.60;;;;;;;;;;5001215;28;20134;-71
2023/07/29 13:42:54;;;;;;;3.95;1.67;;;;;;;;;;5005343;28;20458;-74
2023/07/29 13:45:20;;;;;;;2.42;1.70;;;;;;;;;;5007979;28;20045;-71
2023/07/29 13:47:46;;;;;;;6.60;2.38;;;;;;;;;;4998489;28;20529;-72
2023/07/29 13:50:11;;;;;;;2.92;1.90;;;;;;;;;;5007880;28;20034;-73
2023/07/29 13:52:37;;;;;;;4.18;1.67;;;;;;;;;;4998172;28;20055;-73
2023/07/29 13:55:04;;;;;;;3.50;2.05;;;;;;;;;;5005119;28;20381;-74
2023/07/29 13:57:30;;;;;;;4.68;2.05;;;;;;;;;;5007643;28;20045;-73
2023/07/29 13:59:55;;;;;;;3.70;2.10;;;;;;;;;;5008697;28;20979;-74
2023/07/29 14:02:21;;;;;;;3.00;2.05;;;;;;;;;;5005022;28;20071;-73
2023/07/29 14:04:46;;;;;;;2.53;1.85;;;;;;;;;;4993343;28;20518;-75
2023/07/29 14:07:12;;;;;;;2.17;1.58;;;;;;;;;;5000781;28;20149;-71
2023/07/29 14:09:38;;;;;;;3.35;1.90;;;;;;;;;;5010783;28;20883;-71
2023/07/29 14:12:04;;;;;;;3.28;1.60;;;;;;;;;;5009556;28;20546;-71
2023/07/29 14:14:29;;;;;;;2.53;1.90;;;;;;;;;;5006457;28;20432;-71
2023/07/29 14:16:55;;;;;;;3.75;1.73;;;;;;;;;;4998216;28;20522;-72
2023/07/29 14:19:20;;;;;;;2.95;1.80;;;;;;;;;;5000192;28;20054;-71
2023/07/29 14:21:46;;;;;;;4.07;1.80;;;;;;;;;;5005096;28;20050;-71
2023/07/29 14:24:11;;;;;;;4.53;2.13;;;;;;;;;;5004423;28;20046;-72
2023/07/29 14:26:37;;;;;;;2.42;1.88;;;;;;;;;;5006245;28;20088;-71
2023/07/29 14:29:02;;;;;;;2.72;1.85;;;;;;;;;;5008761;28;20038;-74
2023/07/29 14:31:27;;;;;;;1.73;1.40;;;;;;;;;;5009165;28;20049;-72
2023/07/29 14:33:53;;;;;;;3.85;1.83;;;;;;;;;;5010613;28;20857;-73
2023/07/29 14:36:18;;;;;;;5.55;2.63;;;;;;;;;;5007167;28;20049;-73
2023/07/29 14:38:44;;;;;;;3.92;2.30;;;;;;;;;;5002239;28;20077;-72
2023/07/29 14:41:09;;;;;;;2.63;2.22;;;;;;;;;;4999819;28;20046;-73